Time;durP1;ratioP1;P1;durP2;ratioP2;P2;SDS_P1;SDS_P2;PMS_P1;PMS_P2;Temp;Humidity;BMP_temperature;BMP_pressure;BME280_temperature;BME280_humidity;BME280_pressure;Samples;Min_cycle;Max_cycle;Signal;HPM_P1;HPM_P2
2022/09/22 00:00:29;;;;;;;2.60;1.00;;;;;;;;;;7386914;19;20002;-73
2022/09/22 00:02:57;;;;;;;1.58;1.08;;;;;;;;;;7384642;19;20524;-73
2022/09/22 00:05:23;;;;;;;4.22;1.63;;;;;;;;;;7384737;19;20066;-73
2022/09/22 00:07:49;;;;;;;2.80;1.40;;;;;;;;;;7385120;19;19991;-73
2022/09/22 00:10:14;;;;;;;2.15;1.25;;;;;;;;;;7385293;19;20375;-73
2022/09/22 00:12:39;;;;;;;4.53;1.52;;;;;;;;;;7388161;19;19994;-74
2022/09/22 00:15:05;;;;;;;6.43;2.13;;;;;;;;;;7388973;19;20017;-72
2022/09/22 00:17:31;;;;;;;5.05;1.83;;;;;;;;;;7390289;19;19994;-74
2022/09/22 00:19:56;;;;;;;1.45;1.08;;;;;;;;;;7388957;19;20071;-72
2022/09/22 00:22:22;;;;;;;0.85;0.82;;;;;;;;;;7389166;19;19995;-73
2022/09/22 00:24:47;;;;;;;2.33;1.13;;;;;;;;;;7389137;19;20365;-73
2022/09/22 00:27:12;;;;;;;3.97;1.58;;;;;;;;;;7390149;19;20669;-73
2022/09/22 00:29:38;;;;;;;2.25;1.40;;;;;;;;;;7389774;19;19998;-73
2022/09/22 00:32:03;;;;;;;6.18;1.55;;;;;;;;;;7389396;19;19999;-73
2022/09/22 00:34:28;;;;;;;1.05;0.75;;;;;;;;;;7387228;19;20019;-73
2022/09/22 00:36:55;;;;;;;1.10;0.93;;;;;;;;;;7389639;19;19998;-74
2022/09/22 00:39:20;;;;;;;1.05;0.98;;;;;;;;;;7389129;19;20080;-72
2022/09/22 00:41:49;;;;;;;1.85;1.30;;;;;;;;;;7387997;19;20002;-73
2022/09/22 00:44:31;;;;;;;2.83;1.23;;;;;;;;;;7382817;19;20006;-73
2022/09/22 00:47:05;;;;;;;2.40;1.65;;;;;;;;;;7385165;19;20097;-74
2022/09/22 00:49:34;;;;;;;1.98;1.27;;;;;;;;;;7385065;19;20026;-74
2022/09/22 00:52:00;;;;;;;5.70;1.38;;;;;;;;;;7383667;19;19998;-74
2022/09/22 00:54:26;;;;;;;2.67;1.20;;;;;;;;;;7388182;19;20014;-74
2022/09/22 00:57:08;;;;;;;2.88;1.80;;;;;;;;;;7384494;19;19995;-74
2022/09/22 00:59:34;;;;;;;6.97;2.05;;;;;;;;;;7388792;19;19995;-73
2022/09/22 01:02:00;;;;;;;5.53;1.52;;;;;;;;;;7387507;19;19994;-74
2022/09/22 01:04:26;;;;;;;7.65;1.40;;;;;;;;;;7387037;19;20002;-74
2022/09/22 01:06:54;;;;;;;1.00;1.00;;;;;;;;;;7388396;19;20396;-74
2022/09/22 01:09:19;;;;;;;2.00;1.40;;;;;;;;;;7387853;19;20037;-74
2022/09/22 01:11:45;;;;;;;5.82;1.50;;;;;;;;;;7390548;19;20003;-74
2022/09/22 01:14:20;;;;;;;1.27;1.10;;;;;;;;;;7390189;19;20074;-73
2022/09/22 01:16:59;;;;;;;1.92;1.55;;;;;;;;;;7387441;19;20010;-74
2022/09/22 01:19:39;;;;;;;1.52;1.40;;;;;;;;;;7385836;19;19999;-74
2022/09/22 01:22:45;;;;;;;1.23;0.98;;;;;;;;;;7386148;19;19999;-72
2022/09/22 01:25:29;;;;;;;4.60;1.50;;;;;;;;;;7386303;19;20036;-73
2022/09/22 01:28:17;;;;;;;1.08;0.98;;;;;;;;;;7387513;19;19998;-73
2022/09/22 01:30:48;;;;;;;1.27;1.17;;;;;;;;;;7385817;19;19994;-72
2022/09/22 01:33:22;;;;;;;2.88;1.35;;;;;;;;;;7387241;19;20389;-74
2022/09/22 01:35:47;;;;;;;2.25;1.65;;;;;;;;;;7387676;19;20072;-74
2022/09/22 01:38:57;;;;;;;2.63;1.30;;;;;;;;;;7389342;19;20040;-74
2022/09/22 01:41:53;;;;;;;1.00;0.93;;;;;;;;;;7382598;19;20256;-74
2022/09/22 01:45:29;;;;;;;2.65;1.25;;;;;;;;;;7385916;19;20003;-74
2022/09/22 01:48:04;;;;;;;2.58;1.30;;;;;;;;;;7382646;19;20096;-75
2022/09/22 01:50:34;;;;;;;2.30;1.38;;;;;;;;;;7382965;19;19995;-74
2022/09/22 01:53:05;;;;;;;2.95;1.58;;;;;;;;;;7385710;19;19998;-74
2022/09/22 01:55:39;;;;;;;2.47;1.42;;;;;;;;;;7386782;19;20410;-73
2022/09/22 01:58:18;;;;;;;1.27;1.13;;;;;;;;;;7385457;19;20367;-73
2022/09/22 02:00:50;;;;;;;2.92;1.77;;;;;;;;;;7386773;19;20003;-73
2022/09/22 02:03:23;;;;;;;1.42;1.15;;;;;;;;;;7384688;19;20038;-72
2022/09/22 02:06:03;;;;;;;2.78;1.30;;;;;;;;;;7386852;19;19999;-74
2022/09/22 02:08:36;;;;;;;1.73;1.27;;;;;;;;;;7386637;19;20002;-75
2022/09/22 02:11:09;;;;;;;1.02;0.93;;;;;;;;;;7384406;19;20006;-73
2022/09/22 02:13:35;;;;;;;2.70;1.65;;;;;;;;;;7386353;19;20461;-73
2022/09/22 02:16:02;;;;;;;4.57;1.73;;;;;;;;;;7385142;19;20005;-73
2022/09/22 02:18:41;;;;;;;1.70;1.08;;;;;;;;;;7386258;19;19999;-73
2022/09/22 02:21:07;;;;;;;4.80;1.35;;;;;;;;;;7386407;19;20006;-73
2022/09/22 02:23:33;;;;;;;1.77;1.48;;;;;;;;;;7386949;19;20003;-74
2022/09/22 02:26:00;;;;;;;0.90;0.82;;;;;;;;;;7388550;19;20007;-73
2022/09/22 02:28:28;;;;;;;8.27;1.85;;;;;;;;;;7386595;19;19999;-75
2022/09/22 02:30:56;;;;;;;1.63;1.27;;;;;;;;;;7387512;19;20001;-74
2022/09/22 02:33:23;;;;;;;1.27;1.00;;;;;;;;;;7392913;19;20002;-74
2022/09/22 02:35:58;;;;;;;1.90;1.52;;;;;;;;;;7393928;19;20003;-73
2022/09/22 02:39:05;;;;;;;1.92;1.50;;;;;;;;;;7391003;19;19995;-73
2022/09/22 02:41:41;;;;;;;2.28;1.38;;;;;;;;;;7387920;19;20325;-73
2022/09/22 02:44:17;;;;;;;2.13;1.52;;;;;;;;;;7387378;19;20005;-73
2022/09/22 02:46:48;;;;;;;1.85;1.65;;;;;;;;;;7389779;19;20337;-73
2022/09/22 02:49:15;;;;;;;;;;;;;;;;;;7389854;19;20002;-74
2022/09/22 02:51:41;;;;;;;1.38;1.27;;;;;;;;;;7388429;19;19921;-74
2022/09/22 02:54:07;;;;;;;4.10;1.75;;;;;;;;;;7388819;19;20162;-74
2022/09/22 02:56:32;;;;;;;1.00;0.98;;;;;;;;;;7392916;19;20019;-74
2022/09/22 02:58:58;;;;;;;3.50;1.52;;;;;;;;;;7393203;19;20002;-74
2022/09/22 03:01:23;;;;;;;3.67;1.98;;;;;;;;;;7392417;19;20464;-74
2022/09/22 03:03:49;;;;;;;4.63;2.28;;;;;;;;;;7390653;19;19991;-73
2022/09/22 03:06:14;;;;;;;2.72;1.55;;;;;;;;;;7392525;19;19991;-73
2022/09/22 03:08:40;;;;;;;1.77;1.42;;;;;;;;;;7392559;19;20020;-74
2022/09/22 03:11:05;;;;;;;1.40;1.30;;;;;;;;;;7390065;19;20088;-74
2022/09/22 03:13:31;;;;;;;2.90;1.75;;;;;;;;;;7391949;19;20011;-74
2022/09/22 03:15:56;;;;;;;1.55;1.30;;;;;;;;;;7392470;19;20033;-73
2022/09/22 03:18:21;;;;;;;1.98;1.35;;;;;;;;;;7392569;19;19995;-73
2022/09/22 03:20:46;;;;;;;2.38;1.63;;;;;;;;;;7390435;19;20002;-72
2022/09/22 03:23:12;;;;;;;3.30;1.42;;;;;;;;;;7390017;19;20011;-75
2022/09/22 03:25:37;;;;;;;1.35;1.00;;;;;;;;;;7391647;19;19999;-74
2022/09/22 03:28:03;;;;;;;2.55;1.60;;;;;;;;;;7391584;19;20418;-74
2022/09/22 03:30:28;;;;;;;2.63;1.60;;;;;;;;;;7391617;19;20005;-74
2022/09/22 03:32:54;;;;;;;1.70;1.40;;;;;;;;;;7390721;19;19999;-74
2022/09/22 03:35:19;;;;;;;2.13;1.45;;;;;;;;;;7388986;19;19999;-73
2022/09/22 03:37:45;;;;;;;2.03;1.23;;;;;;;;;;7395750;19;20783;-74
2022/09/22 03:40:10;;;;;;;4.30;1.80;;;;;;;;;;7394744;19;20457;-73
2022/09/22 03:42:35;;;;;;;2.20;0.70;;;;;;;;;;7385920;19;20354;-74
2022/09/22 03:45:03;;;;;;;1.92;1.30;;;;;;;;;;7389411;19;20477;-74
2022/09/22 03:47:28;;;;;;;2.63;1.55;;;;;;;;;;7390779;19;20010;-73
2022/09/22 03:49:53;;;;;;;1.30;1.20;;;;;;;;;;7391564;19;19991;-74
2022/09/22 03:52:19;;;;;;;2.08;1.08;;;;;;;;;;7390338;19;20584;-74
2022/09/22 03:54:44;;;;;;;1.15;0.95;;;;;;;;;;7388976;19;20009;-74
2022/09/22 03:57:10;;;;;;;1.08;0.95;;;;;;;;;;7388905;19;20011;-74
2022/09/22 03:59:35;;;;;;;2.20;1.40;;;;;;;;;;7390441;19;19999;-73
2022/09/22 04:02:01;;;;;;;1.40;1.20;;;;;;;;;;7387578;19;20030;-73
2022/09/22 04:04:27;;;;;;;2.10;1.67;;;;;;;;;;7389496;19;20022;-75
2022/09/22 04:06:52;;;;;;;1.75;1.52;;;;;;;;;;7390401;19;20118;-73
2022/09/22 04:09:17;;;;;;;4.53;1.80;;;;;;;;;;7389868;19;20002;-72
2022/09/22 04:11:43;;;;;;;1.63;1.30;;;;;;;;;;7389386;19;20055;-75
2022/09/22 04:14:09;;;;;;;2.40;1.73;;;;;;;;;;7389207;19;20051;-74
2022/09/22 04:16:35;;;;;;;1.15;1.05;;;;;;;;;;7389973;19;20455;-74
2022/09/22 04:19:01;;;;;;;1.13;1.00;;;;;;;;;;7389594;19;20544;-72
2022/09/22 04:21:27;;;;;;;2.05;1.55;;;;;;;;;;7389034;19;20003;-74
2022/09/22 04:23:52;;;;;;;1.60;1.17;;;;;;;;;;7388249;19;20351;-73
2022/09/22 04:26:17;;;;;;;1.23;1.00;;;;;;;;;;7389457;19;19995;-73
2022/09/22 04:28:43;;;;;;;2.30;1.52;;;;;;;;;;7388193;19;20020;-73
2022/09/22 04:31:08;;;;;;;1.83;1.48;;;;;;;;;;7390439;19;20649;-72
2022/09/22 04:33:33;;;;;;;1.58;1.05;;;;;;;;;;7391505;19;20016;-73
2022/09/22 04:35:58;;;;;;;1.20;1.10;;;;;;;;;;7390948;19;20003;-73
2022/09/22 04:38:24;;;;;;;1.60;1.10;;;;;;;;;;7392979;19;20327;-74
2022/09/22 04:40:51;;;;;;;2.38;1.88;;;;;;;;;;7389418;19;19998;-73
2022/09/22 04:43:16;;;;;;;4.00;1.80;;;;;;;;;;7387517;19;20002;-74
2022/09/22 04:45:45;;;;;;;1.50;1.40;;;;;;;;;;7388769;19;20024;-74
2022/09/22 04:48:10;;;;;;;1.50;1.40;;;;;;;;;;7384918;19;20027;-74
2022/09/22 04:50:35;;;;;;;2.88;1.63;;;;;;;;;;7391382;19;20393;-73
2022/09/22 04:53:01;;;;;;;3.22;2.20;;;;;;;;;;7391065;19;20003;-73
2022/09/22 04:55:27;;;;;;;2.60;1.50;;;;;;;;;;7389016;19;19995;-72
2022/09/22 04:57:55;;;;;;;2.17;1.42;;;;;;;;;;7389265;19;20006;-74
2022/09/22 05:00:22;;;;;;;1.80;1.52;;;;;;;;;;7389891;19;20002;-73
2022/09/22 05:02:48;;;;;;;2.38;1.40;;;;;;;;;;7391288;19;19999;-73
2022/09/22 05:05:14;;;;;;;2.67;1.63;;;;;;;;;;7388230;19;20007;-74
2022/09/22 05:07:53;;;;;;;1.80;1.70;;;;;;;;;;7389372;19;20006;-73
2022/09/22 05:10:19;;;;;;;2.28;1.08;;;;;;;;;;7388880;19;20054;-74
2022/09/22 05:12:55;;;;;;;2.25;1.42;;;;;;;;;;7390994;19;19998;-72
2022/09/22 05:15:21;;;;;;;1.90;1.23;;;;;;;;;;7387530;19;20481;-73
2022/09/22 05:17:48;;;;;;;2.97;2.05;;;;;;;;;;7389104;19;19998;-74
2022/09/22 05:20:14;;;;;;;1.77;1.23;;;;;;;;;;7387500;19;20002;-74
2022/09/22 05:22:40;;;;;;;3.45;1.40;;;;;;;;;;7387385;19;19999;-72
2022/09/22 05:25:10;;;;;;;2.85;1.73;;;;;;;;;;7386797;19;20070;-74
2022/09/22 05:27:41;;;;;;;1.13;1.03;;;;;;;;;;7388339;19;20014;-73
2022/09/22 05:30:07;;;;;;;3.08;1.48;;;;;;;;;;7388582;19;20240;-73
2022/09/22 05:32:32;;;;;;;1.65;1.17;;;;;;;;;;7387691;19;20493;-71
2022/09/22 05:34:57;;;;;;;3.85;2.05;;;;;;;;;;7384754;19;20002;-72
2022/09/22 05:37:23;;;;;;;2.22;1.48;;;;;;;;;;7387995;19;20029;-74
2022/09/22 05:39:48;;;;;;;5.60;2.17;;;;;;;;;;7390700;19;20013;-71
2022/09/22 05:42:13;;;;;;;1.23;1.13;;;;;;;;;;7390188;19;20020;-72
2022/09/22 05:44:39;;;;;;;5.38;2.67;;;;;;;;;;7390304;19;20034;-73
2022/09/22 05:47:04;;;;;;;3.60;1.98;;;;;;;;;;7317599;19;20007;-75
2022/09/22 05:49:29;;;;;;;2.65;1.63;;;;;;;;;;7387125;19;20002;-75
2022/09/22 05:52:16;;;;;;;2.20;1.35;;;;;;;;;;7386924;19;20016;-76
2022/09/22 05:54:41;;;;;;;2.08;1.52;;;;;;;;;;7377371;19;20475;-77
2022/09/22 05:57:07;;;;;;;2.42;1.35;;;;;;;;;;7384611;19;20002;-76
2022/09/22 05:59:32;;;;;;;2.50;1.60;;;;;;;;;;7387104;19;20357;-76
2022/09/22 06:01:57;;;;;;;2.22;1.75;;;;;;;;;;7386209;19;19994;-77
2022/09/22 06:04:23;;;;;;;4.30;2.22;;;;;;;;;;7387654;19;19998;-77
2022/09/22 06:06:48;;;;;;;2.97;1.90;;;;;;;;;;7390842;19;20003;-77
2022/09/22 06:09:14;;;;;;;2.00;1.02;;;;;;;;;;7395432;19;20078;-77
2022/09/22 06:11:39;;;;;;;3.55;1.65;;;;;;;;;;7395829;19;20002;-77
2022/09/22 06:14:05;;;;;;;4.30;2.15;;;;;;;;;;7396154;19;20124;-77
2022/09/22 06:16:30;;;;;;;2.05;1.60;;;;;;;;;;7409967;19;20006;-77
2022/09/22 06:18:56;;;;;;;1.67;1.20;;;;;;;;;;7408421;19;19994;-77
2022/09/22 06:21:21;;;;;;;6.50;2.20;;;;;;;;;;7398364;19;20452;-76
2022/09/22 06:23:46;;;;;;;1.83;1.20;;;;;;;;;;7394149;19;19998;-74
2022/09/22 06:26:12;;;;;;;1.95;1.25;;;;;;;;;;7399463;19;20015;-76
2022/09/22 06:28:37;;;;;;;1.83;1.42;;;;;;;;;;7395436;19;20403;-76
2022/09/22 06:31:02;;;;;;;1.80;1.30;;;;;;;;;;7394870;19;20353;-76
2022/09/22 06:33:28;;;;;;;2.47;1.25;;;;;;;;;;7394756;19;19999;-75
2022/09/22 06:35:55;;;;;;;4.07;1.50;;;;;;;;;;7394353;19;19994;-76
2022/09/22 06:38:21;;;;;;;3.80;2.20;;;;;;;;;;7392808;19;19994;-77
2022/09/22 06:40:46;;;;;;;3.95;1.88;;;;;;;;;;7379999;19;20400;-79
2022/09/22 06:43:22;;;;;;;10.07;4.45;;;;;;;;;;7391290;19;19998;-77
2022/09/22 06:45:52;;;;;;;2.05;1.40;;;;;;;;;;7395740;19;20003;-77
2022/09/22 06:48:20;;;;;;;4.25;1.50;;;;;;;;;;7395157;19;20717;-77
2022/09/22 06:50:52;;;;;;;4.13;1.73;;;;;;;;;;7394359;19;19990;-78
2022/09/22 06:53:18;;;;;;;2.40;1.35;;;;;;;;;;7390682;19;20653;-77
2022/09/22 06:55:44;;;;;;;2.70;1.30;;;;;;;;;;7394943;19;20074;-77
2022/09/22 06:58:11;;;;;;;1.60;1.35;;;;;;;;;;7397159;19;20614;-77
2022/09/22 07:00:37;;;;;;;1.27;1.17;;;;;;;;;;7393082;19;20084;-76
2022/09/22 07:03:18;;;;;;;3.13;1.63;;;;;;;;;;7390906;19;20068;-78
2022/09/22 07:05:52;;;;;;;8.23;1.65;;;;;;;;;;7394445;19;20076;-77
2022/09/22 07:08:19;;;;;;;2.85;1.50;;;;;;;;;;7396718;19;20317;-73
2022/09/22 07:10:44;;;;;;;2.60;1.50;;;;;;;;;;7390945;19;19991;-74
2022/09/22 07:13:10;;;;;;;2.72;1.70;;;;;;;;;;7393384;19;20017;-75
2022/09/22 07:15:35;;;;;;;2.10;1.60;;;;;;;;;;7393698;19;19995;-74
2022/09/22 07:18:02;;;;;;;5.72;2.58;;;;;;;;;;7395420;19;19998;-74
2022/09/22 07:20:27;;;;;;;4.95;2.30;;;;;;;;;;7392809;19;20010;-75
2022/09/22 07:22:59;;;;;;;4.63;2.38;;;;;;;;;;7394245;19;20002;-74
2022/09/22 07:25:24;;;;;;;3.47;1.80;;;;;;;;;;7390735;19;20033;-74
2022/09/22 07:27:50;;;;;;;1.80;1.58;;;;;;;;;;7394689;19;20018;-75
2022/09/22 07:30:15;;;;;;;2.72;1.50;;;;;;;;;;7396071;19;20009;-73
2022/09/22 07:32:41;;;;;;;1.92;1.10;;;;;;;;;;7392243;19;20076;-73
2022/09/22 07:35:07;;;;;;;2.25;1.63;;;;;;;;;;7390931;19;20002;-74
2022/09/22 07:37:32;;;;;;;2.03;1.58;;;;;;;;;;7393620;19;20555;-73
2022/09/22 07:39:59;;;;;;;1.85;1.40;;;;;;;;;;7394811;19;20002;-74
2022/09/22 07:42:24;;;;;;;2.47;1.67;;;;;;;;;;7393347;19;20006;-74
2022/09/22 07:50:31;;;;;;;2.17;1.40;;;;;;;;;;7391476;19;19999;-75
2022/09/22 07:52:57;;;;;;;2.88;1.70;;;;;;;;;;7390888;19;19998;-75
2022/09/22 07:55:23;;;;;;;2.92;1.48;;;;;;;;;;7390855;19;19991;-76
2022/09/22 07:57:57;;;;;;;2.28;1.35;;;;;;;;;;7394232;19;20472;-75
2022/09/22 08:00:24;;;;;;;1.85;1.65;;;;;;;;;;7395525;19;20023;-75
2022/09/22 08:02:53;;;;;;;2.88;1.50;;;;;;;;;;7390010;19;20571;-74
2022/09/22 08:05:19;;;;;;;2.47;1.48;;;;;;;;;;7392428;19;20357;-76
2022/09/22 08:07:45;;;;;;;2.10;1.38;;;;;;;;;;7392826;19;20003;-77
2022/09/22 08:10:12;;;;;;;3.90;1.75;;;;;;;;;;7392892;19;20023;-75
2022/09/22 08:12:38;;;;;;;2.42;1.58;;;;;;;;;;7392473;19;20680;-74
2022/09/22 08:15:04;;;;;;;2.78;1.70;;;;;;;;;;7392466;19;20020;-75
2022/09/22 08:17:29;;;;;;;4.20;1.60;;;;;;;;;;7390365;19;19990;-75
2022/09/22 08:19:55;;;;;;;3.70;1.75;;;;;;;;;;7392923;19;20022;-75
2022/09/22 08:22:21;;;;;;;4.95;1.83;;;;;;;;;;7392352;19;19999;-75
2022/09/22 08:24:46;;;;;;;2.92;1.88;;;;;;;;;;7388411;19;20338;-74
2022/09/22 08:27:12;;;;;;;6.57;1.80;;;;;;;;;;7392043;19;20006;-76
2022/09/22 08:29:37;;;;;;;4.75;2.25;;;;;;;;;;7390034;19;20468;-77
2022/09/22 08:32:02;;;;;;;3.20;1.83;;;;;;;;;;7392707;19;20020;-76
2022/09/22 08:34:28;;;;;;;3.88;1.80;;;;;;;;;;7388337;19;20521;-76
2022/09/22 08:36:54;;;;;;;3.70;1.90;;;;;;;;;;7392899;19;20010;-76
2022/09/22 08:39:20;;;;;;;2.65;1.70;;;;;;;;;;7389192;19;20560;-76
2022/09/22 08:41:57;;;;;;;2.55;1.70;;;;;;;;;;7391205;19;20386;-76
2022/09/22 08:44:27;;;;;;;2.53;1.73;;;;;;;;;;7389634;19;20085;-76
2022/09/22 08:46:59;;;;;;;4.47;1.67;;;;;;;;;;7389949;19;20369;-76
2022/09/22 08:52:48;;;;;;;2.95;2.05;;;;;;;;;;7391973;19;20345;-75
2022/09/22 08:55:22;;;;;;;2.78;1.75;;;;;;;;;;7376583;19;20014;-73
2022/09/22 08:58:08;;;;;;;2.65;1.58;;;;;;;;;;7386782;19;19999;-73
2022/09/22 09:00:45;;;;;;;3.00;1.85;;;;;;;;;;7385125;19;20374;-73
2022/09/22 09:03:30;;;;;;;2.65;1.70;;;;;;;;;;7385487;19;20379;-75
2022/09/22 09:06:28;;;;;;;4.18;1.83;;;;;;;;;;7384747;19;20598;-75
2022/09/22 09:09:15;;;;;;;2.70;1.60;;;;;;;;;;7381284;19;20580;-74
2022/09/22 09:12:04;;;;;;;4.13;1.85;;;;;;;;;;7387574;19;20023;-74
2022/09/22 09:14:41;;;;;;;3.13;1.90;;;;;;;;;;7385895;19;19999;-75
2022/09/22 09:17:26;;;;;;;2.78;1.85;;;;;;;;;;7386873;19;20096;-74
2022/09/22 09:19:58;;;;;;;2.38;1.50;;;;;;;;;;7385632;19;19995;-74
2022/09/22 09:22:40;;;;;;;4.68;1.70;;;;;;;;;;7386466;19;20168;-75
2022/09/22 09:25:21;;;;;;;2.92;1.73;;;;;;;;;;7383220;19;20597;-75
2022/09/22 09:27:53;;;;;;;3.65;2.00;;;;;;;;;;7387436;19;20005;-75
2022/09/22 09:30:20;;;;;;;4.43;2.00;;;;;;;;;;7386644;19;20003;-73
2022/09/22 09:32:50;;;;;;;4.10;1.90;;;;;;;;;;7387372;19;20009;-74
2022/09/22 09:35:22;;;;;;;5.60;1.87;;;;;;;;;;7381807;19;20673;-73
2022/09/22 09:37:49;;;;;;;4.47;2.05;;;;;;;;;;7387031;19;20250;-74
2022/09/22 09:40:17;;;;;;;5.30;2.20;;;;;;;;;;7384840;19;20018;-74
2022/09/22 09:43:04;;;;;;;3.67;1.55;;;;;;;;;;7392453;19;20024;-75
2022/09/22 09:46:02;;;;;;;4.38;1.90;;;;;;;;;;7392804;19;20776;-74
2022/09/22 09:48:52;;;;;;;4.32;2.05;;;;;;;;;;7389165;19;20448;-74
2022/09/22 09:51:18;;;;;;;3.20;1.70;;;;;;;;;;7393999;19;20034;-74
2022/09/22 09:53:46;;;;;;;4.82;1.98;;;;;;;;;;7392672;19;20009;-74
2022/09/22 09:56:59;;;;;;;2.75;1.70;;;;;;;;;;7394346;19;19999;-74
2022/09/22 10:02:14;;;;;;;5.97;1.77;;;;;;;;;;7393494;19;20020;-74
2022/09/22 10:04:39;;;;;;;3.60;1.65;;;;;;;;;;7391273;19;20496;-74
2022/09/22 10:07:15;;;;;;;3.95;1.80;;;;;;;;;;7394061;19;19994;-72
2022/09/22 10:09:41;;;;;;;2.92;1.50;;;;;;;;;;7389253;19;20007;-73
2022/09/22 10:12:28;;;;;;;2.78;1.40;;;;;;;;;;7393675;19;20007;-73
2022/09/22 10:14:59;;;;;;;2.55;1.50;;;;;;;;;;7390506;19;20001;-74
2022/09/22 10:17:39;;;;;;;1.60;1.30;;;;;;;;;;7392683;19;20028;-72
2022/09/22 10:20:27;;;;;;;3.42;1.98;;;;;;;;;;7393150;19;20062;-67
2022/09/22 10:22:53;;;;;;;2.47;1.30;;;;;;;;;;7389499;19;20002;-67
2022/09/22 10:25:31;;;;;;;3.20;1.55;;;;;;;;;;7389701;19;20614;-66
2022/09/22 10:28:01;;;;;;;2.10;1.60;;;;;;;;;;7392693;19;20022;-67
2022/09/22 10:30:31;;;;;;;1.63;1.40;;;;;;;;;;7392022;19;20082;-66
2022/09/22 10:33:16;;;;;;;1.70;1.38;;;;;;;;;;7389812;19;20047;-66
2022/09/22 10:35:52;;;;;;;1.35;1.13;;;;;;;;;;7389491;19;20006;-67
2022/09/22 10:38:28;;;;;;;1.40;1.00;;;;;;;;;;7387921;19;20104;-66
2022/09/22 10:41:06;;;;;;;1.15;1.05;;;;;;;;;;7391757;19;20023;-68
2022/09/22 10:43:51;;;;;;;2.25;1.00;;;;;;;;;;7389094;19;20039;-68
2022/09/22 10:46:22;;;;;;;5.35;1.08;;;;;;;;;;7391481;19;20007;-68
2022/09/22 10:49:09;;;;;;;13.82;7.18;;;;;;;;;;7391769;19;20457;-68
2022/09/22 10:51:56;;;;;;;1.23;1.13;;;;;;;;;;7387160;19;20023;-68
2022/09/22 10:54:31;;;;;;;1.00;1.00;;;;;;;;;;7389351;19;20006;-67
2022/09/22 10:57:08;;;;;;;1.10;1.00;;;;;;;;;;7392195;19;20005;-67
2022/09/22 10:59:58;;;;;;;1.20;1.10;;;;;;;;;;7389716;19;20074;-67
2022/09/22 11:02:51;;;;;;;2.95;1.08;;;;;;;;;;7389389;19;20018;-68
2022/09/22 11:14:18;;;;;;;3.70;1.95;;;;;;;;;;7392011;19;20013;-66
2022/09/22 11:16:50;;;;;;;1.08;0.95;;;;;;;;;;7390142;19;20007;-72
2022/09/22 11:19:38;;;;;;;2.67;0.95;;;;;;;;;;7391814;19;20027;-73
2022/09/22 11:22:04;;;;;;;0.88;0.88;;;;;;;;;;7394489;19;19998;-72
2022/09/22 11:25:00;;;;;;;5.63;1.95;;;;;;;;;;7389349;19;20532;-71
2022/09/22 11:27:36;;;;;;;1.73;1.20;;;;;;;;;;7394497;19;20368;-72
2022/09/22 11:30:15;;;;;;;1.05;0.95;;;;;;;;;;7395395;19;20357;-73
2022/09/22 11:33:06;;;;;;;1.10;1.00;;;;;;;;;;7395440;19;20048;-73
2022/09/22 11:35:50;;;;;;;;;;;;;;;;;;7395363;19;20114;-72
2022/09/22 11:38:49;;;;;;;1.17;0.90;;;;;;;;;;7395295;19;19923;-72
2022/09/22 11:41:46;;;;;;;2.00;0.80;;;;;;;;;;7392634;19;19998;-74
2022/09/22 11:44:23;;;;;;;0.95;0.93;;;;;;;;;;7388739;19;20002;-69
2022/09/22 11:47:14;;;;;;;0.95;0.70;;;;;;;;;;7382006;19;20014;-70
2022/09/22 11:50:03;;;;;;;1.60;1.17;;;;;;;;;;7388015;19;20010;-70
2022/09/22 11:52:47;;;;;;;1.98;1.13;;;;;;;;;;7387734;19;20489;-70
2022/09/22 11:55:19;;;;;;;1.42;0.93;;;;;;;;;;7386784;19;20577;-70
2022/09/22 11:57:49;;;;;;;0.93;0.82;;;;;;;;;;7387051;19;20480;-70
2022/09/22 12:00:17;;;;;;;1.45;1.00;;;;;;;;;;7387533;19;20011;-69
2022/09/22 12:02:57;;;;;;;1.27;1.02;;;;;;;;;;7389531;19;20013;-71
2022/09/22 12:05:50;;;;;;;2.83;1.15;;;;;;;;;;7385171;19;19995;-71
2022/09/22 12:08:22;;;;;;;1.15;0.90;;;;;;;;;;7389331;19;20019;-71
2022/09/22 12:10:49;;;;;;;1.20;1.10;;;;;;;;;;7385978;19;20010;-70
2022/09/22 12:13:19;;;;;;;3.50;2.00;;;;;;;;;;7387637;19;20011;-71
2022/09/22 12:16:21;;;;;;;4.55;1.30;;;;;;;;;;7388215;19;20066;-72
2022/09/22 12:18:58;;;;;;;1.20;1.10;;;;;;;;;;7388609;19;20003;-69
2022/09/22 12:21:58;;;;;;;0.82;0.82;;;;;;;;;;7387026;19;20070;-70
2022/09/22 12:24:24;;;;;;;1.17;0.85;;;;;;;;;;7386847;19;20006;-70
2022/09/22 12:26:50;;;;;;;0.85;0.85;;;;;;;;;;7387819;19;20077;-70
2022/09/22 12:29:15;;;;;;;1.70;0.85;;;;;;;;;;7387968;19;20017;-70
2022/09/22 12:31:49;;;;;;;1.58;0.80;;;;;;;;;;7386919;19;20074;-71
2022/09/22 12:34:36;;;;;;;1.15;0.73;;;;;;;;;;7384595;19;20021;-71
2022/09/22 12:37:13;;;;;;;0.85;0.77;;;;;;;;;;7386217;19;20010;-69
2022/09/22 12:39:45;;;;;;;0.80;0.80;;;;;;;;;;7387142;19;20354;-71
2022/09/22 12:42:34;;;;;;;1.27;0.95;;;;;;;;;;7387500;19;20461;-70
2022/09/22 12:45:16;;;;;;;0.90;0.73;;;;;;;;;;7386793;19;19995;-69
2022/09/22 12:47:48;;;;;;;1.00;0.70;;;;;;;;;;7388124;19;20005;-72
2022/09/22 12:50:22;;;;;;;1.50;1.00;;;;;;;;;;7386877;19;20576;-70
2022/09/22 12:52:49;;;;;;;0.90;0.82;;;;;;;;;;7382812;19;20010;-69
2022/09/22 12:55:27;;;;;;;2.00;0.95;;;;;;;;;;7385444;19;19995;-69
2022/09/22 12:58:04;;;;;;;3.45;0.90;;;;;;;;;;7387570;19;20008;-70
2022/09/22 13:00:39;;;;;;;1.00;0.88;;;;;;;;;;7385992;19;20007;-69
2022/09/22 13:03:29;;;;;;;0.80;0.80;;;;;;;;;;7386118;19;19998;-70
2022/09/22 13:05:55;;;;;;;1.00;0.90;;;;;;;;;;7387799;19;20006;-70
2022/09/22 13:08:47;;;;;;;1.00;0.90;;;;;;;;;;7386864;19;20437;-70
2022/09/22 13:11:13;;;;;;;1.67;0.90;;;;;;;;;;7382562;19;20003;-70
2022/09/22 13:13:38;;;;;;;0.60;0.60;;;;;;;;;;7388131;19;20486;-70
2022/09/22 13:16:12;;;;;;;1.80;0.80;;;;;;;;;;7386766;19;20006;-71
2022/09/22 13:18:41;;;;;;;1.02;0.70;;;;;;;;;;7386780;19;20003;-69
2022/09/22 13:21:12;;;;;;;2.03;0.95;;;;;;;;;;7383293;19;19998;-71
2022/09/22 13:23:38;;;;;;;0.80;0.80;;;;;;;;;;7387492;19;20009;-69
2022/09/22 13:26:11;;;;;;;0.95;0.88;;;;;;;;;;7384399;19;19995;-71
2022/09/22 13:28:36;;;;;;;0.50;0.50;;;;;;;;;;7386853;19;20548;-70
2022/09/22 13:31:08;;;;;;;0.80;0.80;;;;;;;;;;7383441;19;20010;-70
2022/09/22 13:33:35;;;;;;;2.05;1.00;;;;;;;;;;7389368;19;20011;-71
2022/09/22 13:36:11;;;;;;;0.95;0.70;;;;;;;;;;7385118;19;20011;-71
2022/09/22 13:38:41;;;;;;;0.52;0.40;;;;;;;;;;7390211;19;20027;-71
2022/09/22 13:41:17;;;;;;;1.73;0.60;;;;;;;;;;7385108;19;20464;-71
2022/09/22 13:43:46;;;;;;;0.70;0.70;;;;;;;;;;7384253;19;19999;-71
2022/09/22 13:46:34;;;;;;;1.55;0.95;;;;;;;;;;7386587;19;20003;-71
2022/09/22 13:48:59;;;;;;;0.70;0.70;;;;;;;;;;7384294;19;20011;-72
2022/09/22 13:51:26;;;;;;;1.08;0.98;;;;;;;;;;7382981;19;19995;-71
2022/09/22 13:53:59;;;;;;;2.33;1.15;;;;;;;;;;7383746;19;20007;-72
2022/09/22 13:56:25;;;;;;;1.10;0.82;;;;;;;;;;7390241;19;20415;-70
2022/09/22 13:58:54;;;;;;;0.77;0.77;;;;;;;;;;7388797;19;20025;-69
2022/09/22 14:01:22;;;;;;;0.82;0.80;;;;;;;;;;7389151;19;20059;-70
2022/09/22 14:03:49;;;;;;;1.10;1.00;;;;;;;;;;7388547;19;19994;-70
2022/09/22 14:06:20;;;;;;;0.90;0.90;;;;;;;;;;7390866;19;20376;-70
2022/09/22 14:08:48;;;;;;;5.05;2.55;;;;;;;;;;7387361;19;20011;-70
2022/09/22 14:11:23;;;;;;;2.30;1.25;;;;;;;;;;7387085;19;20535;-70
2022/09/22 14:13:57;;;;;;;0.90;0.77;;;;;;;;;;7388404;19;20088;-70
2022/09/22 14:16:29;;;;;;;2.00;1.00;;;;;;;;;;7388674;19;20375;-70
2022/09/22 14:19:05;;;;;;;1.17;0.73;;;;;;;;;;7387235;19;20382;-70
2022/09/22 14:21:32;;;;;;;1.58;0.88;;;;;;;;;;7388070;19;20314;-71
2022/09/22 14:23:58;;;;;;;1.45;1.13;;;;;;;;;;7387605;19;20003;-72
2022/09/22 14:26:32;;;;;;;1.20;0.88;;;;;;;;;;7387761;19;20003;-69
2022/09/22 14:29:06;;;;;;;3.38;1.20;;;;;;;;;;7394313;19;19994;-71
2022/09/22 14:31:31;;;;;;;0.70;0.70;;;;;;;;;;7394887;19;20002;-70
2022/09/22 14:33:59;;;;;;;2.63;1.50;;;;;;;;;;7394858;19;20364;-70
2022/09/22 14:36:25;;;;;;;0.95;0.85;;;;;;;;;;7397958;19;19999;-69
2022/09/22 14:39:03;;;;;;;0.80;0.70;;;;;;;;;;7394271;19;20353;-70
2022/09/22 14:41:35;;;;;;;1.35;0.82;;;;;;;;;;7392741;19;20003;-70
2022/09/22 14:44:01;;;;;;;0.95;0.77;;;;;;;;;;7394167;19;20006;-69
2022/09/22 14:46:40;;;;;;;0.60;0.60;;;;;;;;;;7396937;19;20337;-70
2022/09/22 14:49:41;;;;;;;0.60;0.60;;;;;;;;;;7392480;19;20007;-71
2022/09/22 14:52:13;;;;;;;;;;;;;;;;;;7395795;19;20469;-71
2022/09/22 14:54:40;;;;;;;0.95;0.80;;;;;;;;;;7395421;19;19931;-70
2022/09/22 14:57:07;;;;;;;0.80;0.80;;;;;;;;;;7393736;19;20002;-69
2022/09/22 15:02:31;;;;;;;1.15;0.80;;;;;;;;;;7395333;19;20031;-70
2022/09/22 15:05:02;;;;;;;1.40;1.00;;;;;;;;;;7392276;19;19999;-71
2022/09/22 15:07:30;;;;;;;3.83;1.08;;;;;;;;;;7392369;19;20070;-71
2022/09/22 15:10:01;;;;;;;0.80;0.70;;;;;;;;;;7391680;19;20130;-71
2022/09/22 15:12:42;;;;;;;0.75;0.75;;;;;;;;;;7390756;19;20003;-71
2022/09/22 15:15:22;;;;;;;0.95;0.77;;;;;;;;;;7391119;19;20433;-70
2022/09/22 15:20:49;;;;;;;0.73;0.60;;;;;;;;;;7394543;19;20246;-70
2022/09/22 15:23:34;;;;;;;0.73;0.70;;;;;;;;;;7385111;19;20493;-70
2022/09/22 15:26:04;;;;;;;0.85;0.73;;;;;;;;;;7378618;19;20005;-70
2022/09/22 15:28:31;;;;;;;0.80;0.70;;;;;;;;;;7393061;19;19994;-70
2022/09/22 15:30:57;;;;;;;0.68;0.68;;;;;;;;;;7390330;19;20357;-70
2022/09/22 15:33:23;;;;;;;0.73;0.60;;;;;;;;;;7391591;19;20010;-70
2022/09/22 15:35:55;;;;;;;1.17;0.88;;;;;;;;;;7392682;19;20009;-71